sensor_id;sensor_type;location;lat;lon;timestamp;pressure;altitude;pressure_sealevel;temperature;humidity
73671;BME280;61968;48.178;11.566;2024-02-21T00:01:47;96756.81;;;5.09;38.60
73671;BME280;61968;48.178;11.566;2024-02-21T00:04:13;96761.38;;;5.15;38.58
73671;BME280;61968;48.178;11.566;2024-02-21T00:06:42;96752.06;;;5.13;38.69
73671;BME280;61968;48.178;11.566;2024-02-21T00:09:09;96755.31;;;5.15;38.92
73671;BME280;61968;48.178;11.566;2024-02-21T00:11:35;96756.94;;;5.16;39.00
73671;BME280;61968;48.178;11.566;2024-02-21T00:14:02;96751.03;;;5.22;38.88
73671;BME280;61968;48.178;11.566;2024-02-21T00:16:28;96744.13;;;5.29;38.87
73671;BME280;61968;48.178;11.566;2024-02-21T00:18:55;96750.41;;;5.20;38.92
73671;BME280;61968;48.178;11.566;2024-02-21T00:21:21;96735.50;;;5.12;39.21
73671;BME280;61968;48.178;11.566;2024-02-21T00:23:49;96743.09;;;5.07;39.24
73671;BME280;61968;48.178;11.566;2024-02-21T00:26:16;96734.66;;;5.20;38.92
73671;BME280;61968;48.178;11.566;2024-02-21T00:28:42;96734.31;;;5.23;39.32
73671;BME280;61968;48.178;11.566;2024-02-21T00:31:08;96729.34;;;5.28;38.95
73671;BME280;61968;48.178;11.566;2024-02-21T00:33:35;96726.47;;;5.23;39.16
73671;BME280;61968;48.178;11.566;2024-02-21T00:36:01;96722.19;;;5.22;39.22
73671;BME280;61968;48.178;11.566;2024-02-21T00:38:28;96724.97;;;5.29;39.12
73671;BME280;61968;48.178;11.566;2024-02-21T00:40:56;96715.09;;;5.31;39.03
73671;BME280;61968;48.178;11.566;2024-02-21T00:43:23;96718.13;;;5.43;38.84
73671;BME280;61968;48.178;11.566;2024-02-21T00:45:49;96703.72;;;5.47;38.75
73671;BME280;61968;48.178;11.566;2024-02-21T00:48:15;96709.34;;;5.35;39.13
73671;BME280;61968;48.178;11.566;2024-02-21T00:50:42;96714.50;;;5.21;39.21
73671;BME280;61968;48.178;11.566;2024-02-21T00:53:08;96707.09;;;5.24;39.50
73671;BME280;61968;48.178;11.566;2024-02-21T00:55:35;96712.66;;;5.29;39.38
73671;BME280;61968;48.178;11.566;2024-02-21T00:58:03;96713.81;;;5.27;39.13
73671;BME280;61968;48.178;11.566;2024-02-21T01:00:29;96712.34;;;5.24;39.40
73671;BME280;61968;48.178;11.566;2024-02-21T01:02:56;96705.81;;;5.20;39.33
73671;BME280;61968;48.178;11.566;2024-02-21T01:05:22;96705.25;;;5.33;39.13
73671;BME280;61968;48.178;11.566;2024-02-21T01:07:48;96708.03;;;5.31;39.19
73671;BME280;61968;48.178;11.566;2024-02-21T01:10:15;96707.09;;;5.24;39.08
73671;BME280;61968;48.178;11.566;2024-02-21T01:12:42;96698.81;;;5.12;39.38
73671;BME280;61968;48.178;11.566;2024-02-21T01:15:09;96701.63;;;5.11;39.75
73671;BME280;61968;48.178;11.566;2024-02-21T01:17:37;96695.34;;;5.20;39.59
73671;BME280;61968;48.178;11.566;2024-02-21T01:20:06;96693.78;;;5.03;39.66
73671;BME280;61968;48.178;11.566;2024-02-21T01:22:33;96692.75;;;5.12;39.45
73671;BME280;61968;48.178;11.566;2024-02-21T01:24:59;96687.97;;;5.15;39.52
73671;BME280;61968;48.178;11.566;2024-02-21T01:27:26;96688.72;;;5.32;39.31
73671;BME280;61968;48.178;11.566;2024-02-21T01:29:53;96680.31;;;5.37;39.14
73671;BME280;61968;48.178;11.566;2024-02-21T01:32:21;96679.69;;;5.35;39.20
73671;BME280;61968;48.178;11.566;2024-02-21T01:34:49;96677.09;;;5.27;39.28
73671;BME280;61968;48.178;11.566;2024-02-21T01:37:15;96681.00;;;5.08;39.58
73671;BME280;61968;48.178;11.566;2024-02-21T01:39:42;96675.69;;;5.16;39.78
73671;BME280;61968;48.178;11.566;2024-02-21T01:42:08;96685.34;;;5.15;39.52
73671;BME280;61968;48.178;11.566;2024-02-21T01:44:35;96681.22;;;5.21;39.55
73671;BME280;61968;48.178;11.566;2024-02-21T01:47:01;96671.84;;;5.27;39.45
73671;BME280;61968;48.178;11.566;2024-02-21T01:49:30;96670.84;;;5.28;39.32
73671;BME280;61968;48.178;11.566;2024-02-21T01:51:56;96666.44;;;5.28;39.47
73671;BME280;61968;48.178;11.566;2024-02-21T01:54:23;96666.72;;;5.33;39.24
73671;BME280;61968;48.178;11.566;2024-02-21T01:56:50;96661.50;;;5.33;38.93
73671;BME280;61968;48.178;11.566;2024-02-21T01:59:18;96653.09;;;5.15;39.40
73671;BME280;61968;48.178;11.566;2024-02-21T02:01:46;96647.69;;;5.17;39.51
73671;BME280;61968;48.178;11.566;2024-02-21T02:04:13;96642.28;;;5.10;39.70
73671;BME280;61968;48.178;11.566;2024-02-21T02:06:41;96651.03;;;5.25;39.25
73671;BME280;61968;48.178;11.566;2024-02-21T02:09:07;96638.28;;;5.22;39.31
73671;BME280;61968;48.178;11.566;2024-02-21T02:11:34;96638.94;;;5.24;39.22
73671;BME280;61968;48.178;11.566;2024-02-21T02:14:01;96629.72;;;5.28;39.22
73671;BME280;61968;48.178;11.566;2024-02-21T02:16:28;96630.19;;;5.09;39.27
73671;BME280;61968;48.178;11.566;2024-02-21T02:18:54;96627.16;;;4.89;40.00
73671;BME280;61968;48.178;11.566;2024-02-21T02:21:23;96626.75;;;4.77;40.20
73671;BME280;61968;48.178;11.566;2024-02-21T02:23:51;96627.38;;;4.79;40.40
73671;BME280;61968;48.178;11.566;2024-02-21T02:26:17;96621.72;;;4.99;39.69
73671;BME280;61968;48.178;11.566;2024-02-21T02:28:44;96617.59;;;5.04;39.57
73671;BME280;61968;48.178;11.566;2024-02-21T02:31:10;96607.88;;;5.13;39.50
73671;BME280;61968;48.178;11.566;2024-02-21T02:33:36;96604.63;;;5.11;39.38
73671;BME280;61968;48.178;11.566;2024-02-21T02:36:03;96608.22;;;5.10;39.41
73671;BME280;61968;48.178;11.566;2024-02-21T02:38:30;96601.91;;;5.19;39.61
73671;BME280;61968;48.178;11.566;2024-02-21T02:40:58;96602.13;;;5.18;39.66
73671;BME280;61968;48.178;11.566;2024-02-21T02:43:24;96598.69;;;5.17;39.53
73671;BME280;61968;48.178;11.566;2024-02-21T02:45:51;96595.72;;;5.20;39.64
73671;BME280;61968;48.178;11.566;2024-02-21T02:48:17;96597.91;;;5.08;39.71
73671;BME280;61968;48.178;11.566;2024-02-21T02:50:45;96587.38;;;5.17;39.63
73671;BME280;61968;48.178;11.566;2024-02-21T02:53:11;96578.63;;;5.24;39.55
73671;BME280;61968;48.178;11.566;2024-02-21T02:55:38;96580.91;;;5.27;39.30
73671;BME280;61968;48.178;11.566;2024-02-21T02:58:06;96578.28;;;5.04;39.57
73671;BME280;61968;48.178;11.566;2024-02-21T03:00:32;96576.69;;;5.18;39.10
73671;BME280;61968;48.178;11.566;2024-02-21T03:03:01;96575.69;;;5.19;39.23
73671;BME280;61968;48.178;11.566;2024-02-21T03:05:29;96571.81;;;5.15;39.68
73671;BME280;61968;48.178;11.566;2024-02-21T03:07:55;96574.03;;;5.26;39.22
73671;BME280;61968;48.178;11.566;2024-02-21T03:10:22;96573.38;;;5.24;39.38
73671;BME280;61968;48.178;11.566;2024-02-21T03:12:48;96573.50;;;5.08;39.62
73671;BME280;61968;48.178;11.566;2024-02-21T03:15:15;96567.56;;;5.14;39.53
73671;BME280;61968;48.178;11.566;2024-02-21T03:17:41;96572.16;;;5.12;39.61
73671;BME280;61968;48.178;11.566;2024-02-21T03:20:08;96571.59;;;5.02;39.66
73671;BME280;61968;48.178;11.566;2024-02-21T03:22:35;96572.63;;;4.93;39.73
73671;BME280;61968;48.178;11.566;2024-02-21T03:25:01;96565.13;;;4.89;39.84
73671;BME280;61968;48.178;11.566;2024-02-21T03:27:28;96581.53;;;4.75;40.11
73671;BME280;61968;48.178;11.566;2024-02-21T03:29:54;96573.66;;;4.83;39.83
73671;BME280;61968;48.178;11.566;2024-02-21T03:32:22;96578.03;;;4.60;40.17
73671;BME280;61968;48.178;11.566;2024-02-21T03:34:48;96565.91;;;4.59;40.26
73671;BME280;61968;48.178;11.566;2024-02-21T03:37:15;96581.41;;;4.68;40.34
73671;BME280;61968;48.178;11.566;2024-02-21T03:39:41;96577.00;;;4.69;40.07
73671;BME280;61968;48.178;11.566;2024-02-21T03:42:08;96569.72;;;4.79;40.04
73671;BME280;61968;48.178;11.566;2024-02-21T03:44:34;96576.13;;;4.77;40.06
73671;BME280;61968;48.178;11.566;2024-02-21T03:47:01;96577.34;;;4.97;39.97
73671;BME280;61968;48.178;11.566;2024-02-21T03:49:29;96568.72;;;4.88;39.74
73671;BME280;61968;48.178;11.566;2024-02-21T03:51:56;96568.31;;;5.00;39.66
73671;BME280;61968;48.178;11.566;2024-02-21T03:54:22;96554.28;;;4.93;39.63
73671;BME280;61968;48.178;11.566;2024-02-21T03:56:49;96554.81;;;5.11;39.26
73671;BME280;61968;48.178;11.566;2024-02-21T03:59:16;96556.91;;;4.93;39.46
73671;BME280;61968;48.178;11.566;2024-02-21T04:01:42;96562.63;;;4.96;39.60
73671;BME280;61968;48.178;11.566;2024-02-21T04:04:09;96565.47;;;4.86;39.99
73671;BME280;61968;48.178;11.566;2024-02-21T04:06:46;96562.78;;;4.95;39.69
73671;BME280;61968;48.178;11.566;2024-02-21T04:09:12;96560.66;;;4.98;39.59
73671;BME280;61968;48.178;11.566;2024-02-21T04:11:38;96564.06;;;4.99;39.86
73671;BME280;61968;48.178;11.566;2024-02-21T04:14:05;96560.69;;;5.13;39.41
73671;BME280;61968;48.178;11.566;2024-02-21T04:16:32;96558.41;;;5.10;39.35
73671;BME280;61968;48.178;11.566;2024-02-21T04:18:58;96554.09;;;4.94;39.39
73671;BME280;61968;48.178;11.566;2024-02-21T04:21:25;96556.38;;;4.66;39.85
73671;BME280;61968;48.178;11.566;2024-02-21T04:23:52;96545.78;;;4.82;39.81
73671;BME280;61968;48.178;11.566;2024-02-21T04:26:19;96543.81;;;4.84;39.80
73671;BME280;61968;48.178;11.566;2024-02-21T04:28:45;96542.69;;;4.87;39.67
73671;BME280;61968;48.178;11.566;2024-02-21T04:31:12;96534.03;;;4.78;39.66
73671;BME280;61968;48.178;11.566;2024-02-21T04:33:38;96535.66;;;4.79;39.75
73671;BME280;61968;48.178;11.566;2024-02-21T04:36:05;96541.19;;;4.84;39.94
73671;BME280;61968;48.178;11.566;2024-02-21T04:38:32;96534.94;;;4.94;39.57
73671;BME280;61968;48.178;11.566;2024-02-21T04:41:00;96528.09;;;4.84;39.62
73671;BME280;61968;48.178;11.566;2024-02-21T04:43:26;96520.91;;;4.86;39.60
73671;BME280;61968;48.178;11.566;2024-02-21T04:45:53;96520.34;;;4.99;39.27
73671;BME280;61968;48.178;11.566;2024-02-21T04:48:19;96515.44;;;4.96;39.45
73671;BME280;61968;48.178;11.566;2024-02-21T04:50:46;96512.34;;;4.93;39.47
73671;BME280;61968;48.178;11.566;2024-02-21T04:53:12;96501.19;;;4.99;39.26
73671;BME280;61968;48.178;11.566;2024-02-21T04:55:39;96497.75;;;5.13;39.18
73671;BME280;61968;48.178;11.566;2024-02-21T04:58:07;96490.91;;;5.12;39.25
73671;BME280;61968;48.178;11.566;2024-02-21T05:00:34;96488.72;;;5.15;38.88
73671;BME280;61968;48.178;11.566;2024-02-21T05:03:00;96483.94;;;5.19;38.58
73671;BME280;61968;48.178;11.566;2024-02-21T05:05:27;96480.81;;;5.01;38.90
73671;BME280;61968;48.178;11.566;2024-02-21T05:07:53;96481.66;;;5.01;38.90
73671;BME280;61968;48.178;11.566;2024-02-21T05:10:20;96480.22;;;4.99;39.09
73671;BME280;61968;48.178;11.566;2024-02-21T05:12:46;96470.94;;;4.88;39.15
73671;BME280;61968;48.178;11.566;2024-02-21T05:15:14;96466.38;;;4.82;39.14
73671;BME280;61968;48.178;11.566;2024-02-21T05:17:41;96468.72;;;5.00;39.10
73671;BME280;61968;48.178;11.566;2024-02-21T05:20:09;96463.94;;;5.03;38.85
73671;BME280;61968;48.178;11.566;2024-02-21T05:22:35;96461.38;;;4.95;38.83
73671;BME280;61968;48.178;11.566;2024-02-21T05:25:02;96453.13;;;4.83;38.91
73671;BME280;61968;48.178;11.566;2024-02-21T05:27:28;96451.19;;;4.77;39.15
73671;BME280;61968;48.178;11.566;2024-02-21T05:29:55;96447.22;;;4.81;38.78
73671;BME280;61968;48.178;11.566;2024-02-21T05:32:23;96441.88;;;4.75;38.83
73671;BME280;61968;48.178;11.566;2024-02-21T05:34:50;96441.94;;;4.66;38.85
73671;BME280;61968;48.178;11.566;2024-02-21T05:37:16;96445.66;;;4.72;39.02
73671;BME280;61968;48.178;11.566;2024-02-21T05:39:43;96444.31;;;4.76;39.03
73671;BME280;61968;48.178;11.566;2024-02-21T05:42:13;96452.34;;;4.75;38.65
73671;BME280;61968;48.178;11.566;2024-02-21T05:44:39;96441.47;;;4.63;39.30
73671;BME280;61968;48.178;11.566;2024-02-21T05:47:06;96438.09;;;4.77;44.46
73671;BME280;61968;48.178;11.566;2024-02-21T05:49:36;96439.41;;;5.34;48.05
73671;BME280;61968;48.178;11.566;2024-02-21T05:52:03;96430.28;;;5.59;41.40
73671;BME280;61968;48.178;11.566;2024-02-21T05:54:31;96425.19;;;5.58;38.99
73671;BME280;61968;48.178;11.566;2024-02-21T05:56:57;96422.56;;;5.43;38.44
73671;BME280;61968;48.178;11.566;2024-02-21T05:59:24;96415.19;;;5.32;38.66
73671;BME280;61968;48.178;11.566;2024-02-21T06:01:54;96413.09;;;5.27;37.96
73671;BME280;61968;48.178;11.566;2024-02-21T06:04:21;96412.19;;;5.20;37.94
73671;BME280;61968;48.178;11.566;2024-02-21T06:06:49;96404.47;;;5.19;38.20
73671;BME280;61968;48.178;11.566;2024-02-21T06:09:15;96410.00;;;5.09;38.12
73671;BME280;61968;48.178;11.566;2024-02-21T06:11:41;96404.81;;;5.01;37.56
73671;BME280;61968;48.178;11.566;2024-02-21T06:14:08;96410.59;;;4.96;38.38
73671;BME280;61968;48.178;11.566;2024-02-21T06:16:34;96411.25;;;4.98;37.86
73671;BME280;61968;48.178;11.566;2024-02-21T06:19:01;96411.94;;;4.92;37.55
73671;BME280;61968;48.178;11.566;2024-02-21T06:21:29;96415.75;;;4.89;37.47
73671;BME280;61968;48.178;11.566;2024-02-21T06:23:57;96412.88;;;4.76;37.75
73671;BME280;61968;48.178;11.566;2024-02-21T06:26:23;96400.13;;;4.73;37.56
73671;BME280;61968;48.178;11.566;2024-02-21T06:28:50;96403.34;;;4.60;38.02
73671;BME280;61968;48.178;11.566;2024-02-21T06:31:16;96395.59;;;4.67;37.53
73671;BME280;61968;48.178;11.566;2024-02-21T06:33:43;96399.69;;;5.22;60.70
73671;BME280;61968;48.178;11.566;2024-02-21T06:36:09;96397.53;;;6.06;42.29
73671;BME280;61968;48.178;11.566;2024-02-21T06:38:36;96392.97;;;5.79;38.14
73671;BME280;61968;48.178;11.566;2024-02-21T06:41:04;96400.72;;;5.51;37.32
73671;BME280;61968;48.178;11.566;2024-02-21T06:43:30;96398.16;;;5.43;38.04
73671;BME280;61968;48.178;11.566;2024-02-21T06:45:57;96398.44;;;5.33;36.98
73671;BME280;61968;48.178;11.566;2024-02-21T06:48:23;96405.94;;;5.21;37.66
73671;BME280;61968;48.178;11.566;2024-02-21T06:50:49;96410.19;;;5.22;37.29
73671;BME280;61968;48.178;11.566;2024-02-21T06:53:16;96405.53;;;4.95;37.17
73671;BME280;61968;48.178;11.566;2024-02-21T06:55:42;96409.44;;;4.99;37.25
73671;BME280;61968;48.178;11.566;2024-02-21T06:58:10;96404.19;;;4.99;37.24
73671;BME280;61968;48.178;11.566;2024-02-21T07:00:38;96404.81;;;5.01;37.50
73671;BME280;61968;48.178;11.566;2024-02-21T07:03:05;96398.75;;;5.00;37.43
73671;BME280;61968;48.178;11.566;2024-02-21T07:05:32;96395.78;;;5.03;37.27
73671;BME280;61968;48.178;11.566;2024-02-21T07:07:58;96394.44;;;4.93;37.36
73671;BME280;61968;48.178;11.566;2024-02-21T07:10:25;96399.06;;;4.82;36.89
73671;BME280;61968;48.178;11.566;2024-02-21T07:12:53;96393.34;;;4.87;37.25
73671;BME280;61968;48.178;11.566;2024-02-21T07:15:20;96395.75;;;4.88;37.29
73671;BME280;61968;48.178;11.566;2024-02-21T07:17:47;96397.44;;;4.81;37.03
73671;BME280;61968;48.178;11.566;2024-02-21T07:20:13;96392.16;;;4.89;36.77
73671;BME280;61968;48.178;11.566;2024-02-21T07:22:40;96394.47;;;4.84;37.16
73671;BME280;61968;48.178;11.566;2024-02-21T07:25:07;96394.47;;;4.84;36.72
73671;BME280;61968;48.178;11.566;2024-02-21T07:27:34;96385.47;;;4.87;37.56
73671;BME280;61968;48.178;11.566;2024-02-21T07:30:00;96391.31;;;4.89;37.11
73671;BME280;61968;48.178;11.566;2024-02-21T07:32:28;96392.38;;;4.80;36.97
73671;BME280;61968;48.178;11.566;2024-02-21T07:34:54;96395.34;;;4.77;37.17
73671;BME280;61968;48.178;11.566;2024-02-21T07:37:21;96391.53;;;4.87;36.95
73671;BME280;61968;48.178;11.566;2024-02-21T07:39:47;96386.28;;;4.87;36.55
73671;BME280;61968;48.178;11.566;2024-02-21T07:42:14;96386.31;;;4.79;36.81
73671;BME280;61968;48.178;11.566;2024-02-21T07:44:41;96385.28;;;4.88;36.58
73671;BME280;61968;48.178;11.566;2024-02-21T07:47:07;96375.81;;;5.02;36.50
73671;BME280;61968;48.178;11.566;2024-02-21T07:49:42;96372.47;;;5.08;35.84
73671;BME280;61968;48.178;11.566;2024-02-21T07:52:09;96370.38;;;5.04;37.14
73671;BME280;61968;48.178;11.566;2024-02-21T07:54:35;96368.50;;;5.12;36.88
73671;BME280;61968;48.178;11.566;2024-02-21T07:57:02;96367.06;;;5.25;37.39
73671;BME280;61968;48.178;11.566;2024-02-21T07:59:29;96361.28;;;5.44;36.85
73671;BME280;61968;48.178;11.566;2024-02-21T08:01:56;96353.03;;;5.47;36.30
73671;BME280;61968;48.178;11.566;2024-02-21T08:04:22;96342.34;;;5.49;36.27
73671;BME280;61968;48.178;11.566;2024-02-21T08:06:52;96338.13;;;5.48;35.69
73671;BME280;61968;48.178;11.566;2024-02-21T08:09:21;96328.28;;;5.50;36.44
73671;BME280;61968;48.178;11.566;2024-02-21T08:11:48;96327.53;;;5.56;35.66
73671;BME280;61968;48.178;11.566;2024-02-21T08:14:15;96310.69;;;5.65;36.05
73671;BME280;61968;48.178;11.566;2024-02-21T08:16:42;96303.88;;;5.71;35.49
73671;BME280;61968;48.178;11.566;2024-02-21T08:19:09;96305.50;;;5.72;34.80
73671;BME280;61968;48.178;11.566;2024-02-21T08:21:35;96310.75;;;5.72;34.83
73671;BME280;61968;48.178;11.566;2024-02-21T08:24:03;96307.06;;;5.66;34.70
73671;BME280;61968;48.178;11.566;2024-02-21T08:26:30;96313.84;;;5.60;34.11
73671;BME280;61968;48.178;11.566;2024-02-21T08:28:56;96314.22;;;5.57;34.53
73671;BME280;61968;48.178;11.566;2024-02-21T08:31:25;96312.59;;;5.56;34.22
73671;BME280;61968;48.178;11.566;2024-02-21T08:33:56;96313.03;;;5.60;34.35
73671;BME280;61968;48.178;11.566;2024-02-21T08:36:27;96305.72;;;5.55;34.38
73671;BME280;61968;48.178;11.566;2024-02-21T08:38:53;96313.34;;;5.35;34.15
73671;BME280;61968;48.178;11.566;2024-02-21T08:41:21;96316.81;;;5.21;34.62
73671;BME280;61968;48.178;11.566;2024-02-21T08:43:49;96314.09;;;5.29;34.93
73671;BME280;61968;48.178;11.566;2024-02-21T08:46:16;96315.25;;;5.42;34.74
73671;BME280;61968;48.178;11.566;2024-02-21T08:48:42;96318.75;;;5.49;34.92
73671;BME280;61968;48.178;11.566;2024-02-21T08:51:09;96315.53;;;5.47;33.59
73671;BME280;61968;48.178;11.566;2024-02-21T08:53:35;96315.06;;;5.28;34.06
73671;BME280;61968;48.178;11.566;2024-02-21T08:56:04;96306.03;;;5.31;34.07
73671;BME280;61968;48.178;11.566;2024-02-21T08:58:32;96312.25;;;5.45;34.73
73671;BME280;61968;48.178;11.566;2024-02-21T09:00:58;96309.06;;;5.49;34.35
73671;BME280;61968;48.178;11.566;2024-02-21T09:03:25;96303.22;;;5.32;34.17
73671;BME280;61968;48.178;11.566;2024-02-21T09:05:52;96298.34;;;5.29;34.36
73671;BME280;61968;48.178;11.566;2024-02-21T09:08:18;96300.34;;;5.27;34.33
73671;BME280;61968;48.178;11.566;2024-02-21T09:10:44;96303.03;;;5.34;33.80
73671;BME280;61968;48.178;11.566;2024-02-21T09:13:11;96304.03;;;5.48;34.15
73671;BME280;61968;48.178;11.566;2024-02-21T09:15:38;96305.84;;;5.83;33.85
73671;BME280;61968;48.178;11.566;2024-02-21T09:18:05;96300.53;;;5.98;33.79
73671;BME280;61968;48.178;11.566;2024-02-21T09:20:32;96304.72;;;6.14;33.63
73671;BME280;61968;48.178;11.566;2024-02-21T09:22:58;96310.53;;;6.10;32.72
73671;BME280;61968;48.178;11.566;2024-02-21T09:25:24;96310.03;;;6.21;33.46
73671;BME280;61968;48.178;11.566;2024-02-21T09:27:53;96309.41;;;6.19;32.92
73671;BME280;61968;48.178;11.566;2024-02-21T09:30:20;96310.19;;;5.98;33.06
73671;BME280;61968;48.178;11.566;2024-02-21T09:32:48;96306.06;;;5.52;33.61
73671;BME280;61968;48.178;11.566;2024-02-21T09:35:15;96306.97;;;5.96;33.65
73671;BME280;61968;48.178;11.566;2024-02-21T09:37:41;96304.47;;;6.31;32.48
73671;BME280;61968;48.178;11.566;2024-02-21T09:40:09;96309.78;;;6.37;31.93
73671;BME280;61968;48.178;11.566;2024-02-21T09:42:37;96303.22;;;6.48;31.95
73671;BME280;61968;48.178;11.566;2024-02-21T09:45:07;96301.44;;;6.55;31.71
73671;BME280;61968;48.178;11.566;2024-02-21T09:47:41;96292.91;;;6.46;32.83
73671;BME280;61968;48.178;11.566;2024-02-21T09:50:11;96285.38;;;6.65;32.31
73671;BME280;61968;48.178;11.566;2024-02-21T09:52:39;96285.84;;;6.75;31.90
73671;BME280;61968;48.178;11.566;2024-02-21T09:55:07;96287.13;;;6.86;31.88
73671;BME280;61968;48.178;11.566;2024-02-21T09:57:36;96281.38;;;6.75;31.38
73671;BME280;61968;48.178;11.566;2024-02-21T10:00:05;96287.50;;;6.26;32.05
73671;BME280;61968;48.178;11.566;2024-02-21T10:02:33;96284.34;;;6.38;32.29
73671;BME280;61968;48.178;11.566;2024-02-21T10:04:59;96270.94;;;6.54;31.58
73671;BME280;61968;48.178;11.566;2024-02-21T10:07:27;96271.25;;;6.72;31.87
73671;BME280;61968;48.178;11.566;2024-02-21T10:10:00;96272.06;;;6.73;31.64
73671;BME280;61968;48.178;11.566;2024-02-21T10:12:27;96267.91;;;6.57;31.74
73671;BME280;61968;48.178;11.566;2024-02-21T10:15:00;96262.84;;;6.84;31.83
73671;BME280;61968;48.178;11.566;2024-02-21T10:17:26;96260.69;;;7.01;31.48
73671;BME280;61968;48.178;11.566;2024-02-21T10:19:53;96259.53;;;7.10;31.09
73671;BME280;61968;48.178;11.566;2024-02-21T10:22:20;96260.88;;;6.92;31.64
73671;BME280;61968;48.178;11.566;2024-02-21T10:24:48;96257.53;;;7.12;31.47
73671;BME280;61968;48.178;11.566;2024-02-21T10:27:14;96248.88;;;7.25;31.21
73671;BME280;61968;48.178;11.566;2024-02-21T10:29:41;96264.13;;;7.42;31.97
73671;BME280;61968;48.178;11.566;2024-02-21T10:32:09;96252.81;;;7.49;31.30
73671;BME280;61968;48.178;11.566;2024-02-21T10:34:36;96252.16;;;7.40;30.71
73671;BME280;61968;48.178;11.566;2024-02-21T10:37:04;96247.34;;;7.50;31.07
73671;BME280;61968;48.178;11.566;2024-02-21T10:39:31;96225.78;;;7.68;31.06
73671;BME280;61968;48.178;11.566;2024-02-21T10:42:01;96217.03;;;7.54;30.36
73671;BME280;61968;48.178;11.566;2024-02-21T10:44:30;96221.50;;;7.67;31.05
73671;BME280;61968;48.178;11.566;2024-02-21T10:46:57;96220.13;;;7.78;30.37
73671;BME280;61968;48.178;11.566;2024-02-21T10:49:24;96211.41;;;7.84;30.39
73671;BME280;61968;48.178;11.566;2024-02-21T10:51:55;96200.88;;;7.91;30.23
73671;BME280;61968;48.178;11.566;2024-02-21T10:54:41;96199.28;;;7.83;29.16
73671;BME280;61968;48.178;11.566;2024-02-21T10:57:12;96188.94;;;7.75;30.05
73671;BME280;61968;48.178;11.566;2024-02-21T10:59:39;96193.19;;;7.96;30.35
73671;BME280;61968;48.178;11.566;2024-02-21T11:02:06;96181.84;;;8.08;30.46
73671;BME280;61968;48.178;11.566;2024-02-21T11:04:33;96176.00;;;8.13;29.85
73671;BME280;61968;48.178;11.566;2024-02-21T11:07:02;96174.53;;;8.24;29.39
73671;BME280;61968;48.178;11.566;2024-02-21T11:09:30;96162.00;;;8.26;29.21
73671;BME280;61968;48.178;11.566;2024-02-21T11:11:58;96160.97;;;8.20;29.09
73671;BME280;61968;48.178;11.566;2024-02-21T11:14:27;96157.09;;;8.36;29.13
73671;BME280;61968;48.178;11.566;2024-02-21T11:16:54;96140.47;;;8.42;28.39
73671;BME280;61968;48.178;11.566;2024-02-21T11:19:22;96142.50;;;8.47;28.41
73671;BME280;61968;48.178;11.566;2024-02-21T11:21:49;96127.50;;;8.47;28.21
73671;BME280;61968;48.178;11.566;2024-02-21T11:24:25;96130.50;;;8.57;28.63
73671;BME280;61968;48.178;11.566;2024-02-21T11:26:52;96125.00;;;8.66;28.71
73671;BME280;61968;48.178;11.566;2024-02-21T11:29:23;96114.13;;;8.35;27.44
73671;BME280;61968;48.178;11.566;2024-02-21T11:31:52;96115.31;;;8.53;28.08
73671;BME280;61968;48.178;11.566;2024-02-21T11:34:19;96108.75;;;8.75;27.97
73671;BME280;61968;48.178;11.566;2024-02-21T11:36:49;96103.72;;;8.67;26.11
73671;BME280;61968;48.178;11.566;2024-02-21T11:39:23;96101.91;;;8.68;26.08
73671;BME280;61968;48.178;11.566;2024-02-21T11:42:01;96099.44;;;8.79;26.42
73671;BME280;61968;48.178;11.566;2024-02-21T11:44:29;96090.03;;;8.90;26.67
73671;BME280;61968;48.178;11.566;2024-02-21T11:46:57;96091.69;;;8.85;26.34
73671;BME280;61968;48.178;11.566;2024-02-21T11:49:24;96086.69;;;8.70;26.46
73671;BME280;61968;48.178;11.566;2024-02-21T11:51:57;96079.09;;;8.22;25.35
73671;BME280;61968;48.178;11.566;2024-02-21T11:54:24;96079.69;;;8.37;24.73
73671;BME280;61968;48.178;11.566;2024-02-21T11:56:51;96069.38;;;8.16;24.97
73671;BME280;61968;48.178;11.566;2024-02-21T11:59:17;96066.19;;;8.65;24.48
73671;BME280;61968;48.178;11.566;2024-02-21T12:01:44;96061.94;;;8.64;23.97
73671;BME280;61968;48.178;11.566;2024-02-21T12:04:12;96054.00;;;8.77;24.58
73671;BME280;61968;48.178;11.566;2024-02-21T12:06:42;96035.56;;;8.64;25.08
73671;BME280;61968;48.178;11.566;2024-02-21T12:09:08;96036.72;;;8.82;24.54
73671;BME280;61968;48.178;11.566;2024-02-21T12:11:35;96033.63;;;8.98;24.48
73671;BME280;61968;48.178;11.566;2024-02-21T12:14:02;96030.69;;;9.06;39.33
73671;BME280;61968;48.178;11.566;2024-02-21T12:16:30;96030.19;;;9.98;43.91
73671;BME280;61968;48.178;11.566;2024-02-21T12:18:58;96031.47;;;10.62;35.90
73671;BME280;61968;48.178;11.566;2024-02-21T12:21:26;96021.25;;;10.84;35.39
73671;BME280;61968;48.178;11.566;2024-02-21T12:23:54;96014.19;;;11.08;28.07
73671;BME280;61968;48.178;11.566;2024-02-21T12:26:20;96001.94;;;11.25;32.29
73671;BME280;61968;48.178;11.566;2024-02-21T12:28:47;95998.38;;;11.67;27.04
73671;BME280;61968;48.178;11.566;2024-02-21T12:31:14;96000.38;;;11.95;32.17
73671;BME280;61968;48.178;11.566;2024-02-21T12:33:41;95994.94;;;12.13;23.01
73671;BME280;61968;48.178;11.566;2024-02-21T12:36:08;95988.56;;;12.14;29.16
73671;BME280;61968;48.178;11.566;2024-02-21T12:38:36;95980.44;;;12.44;29.31
73671;BME280;61968;48.178;11.566;2024-02-21T12:41:03;95980.94;;;12.70;26.52
73671;BME280;61968;48.178;11.566;2024-02-21T12:43:30;95980.66;;;12.83;25.29
73671;BME280;61968;48.178;11.566;2024-02-21T12:45:57;95970.19;;;12.77;21.50
73671;BME280;61968;48.178;11.566;2024-02-21T12:48:23;95958.50;;;12.49;22.17
73671;BME280;61968;48.178;11.566;2024-02-21T12:50:50;95958.13;;;12.57;25.24
73671;BME280;61968;48.178;11.566;2024-02-21T12:53:17;95956.97;;;12.65;26.10
73671;BME280;61968;48.178;11.566;2024-02-21T12:55:45;95947.28;;;12.59;23.02
73671;BME280;61968;48.178;11.566;2024-02-21T12:58:12;95952.47;;;12.65;20.55
73671;BME280;61968;48.178;11.566;2024-02-21T13:00:39;95930.34;;;12.31;19.40